createdAt,value
2018-07-30T00:00:17.691Z,17.57
2018-07-30T00:02:47.578Z,17.80
2018-07-30T00:05:17.462Z,17.93
2018-07-30T00:07:47.235Z,19.93
2018-07-30T00:10:17.122Z,20.33
2018-07-30T00:12:47.292Z,19.37
2018-07-30T00:15:16.963Z,19.30
2018-07-30T00:17:47.288Z,18.93
2018-07-30T00:20:17.002Z,19.60
2018-07-30T00:22:46.834Z,20.53
2018-07-30T00:25:16.507Z,20.13
2018-07-30T00:27:46.313Z,20.30
2018-07-30T00:30:16.137Z,19.67
2018-07-30T00:32:45.977Z,19.67
2018-07-30T00:35:15.661Z,19.53
2018-07-30T00:37:45.480Z,21.07
2018-07-30T00:40:15.938Z,19.87
2018-07-30T00:42:48.381Z,20.93
2018-07-30T00:45:18.715Z,21.70
2018-07-30T00:47:48.571Z,21.03
2018-07-30T00:50:18.388Z,22.53
2018-07-30T00:52:48.160Z,22.60
2018-07-30T00:55:17.963Z,20.77
2018-07-30T00:57:47.767Z,21.27
2018-07-30T01:00:17.583Z,22.57
2018-07-30T01:02:47.321Z,22.37
2018-07-30T01:05:17.096Z,21.30
2018-07-30T01:07:46.901Z,21.07
2018-07-30T01:10:17.148Z,22.20
2018-07-30T01:12:47.248Z,22.33
2018-07-30T01:15:17.108Z,23.27
2018-07-30T01:17:46.931Z,22.43
2018-07-30T01:20:16.718Z,23.73
2018-07-30T01:22:46.540Z,23.07
2018-07-30T01:25:16.436Z,23.97
2018-07-30T01:27:46.162Z,24.60
2018-07-30T01:30:15.889Z,25.27
2018-07-30T01:32:46.027Z,24.57
2018-07-30T01:35:16.116Z,23.77
2018-07-30T01:37:45.945Z,24.47
2018-07-30T01:40:15.851Z,25.17
2018-07-30T01:42:45.658Z,23.83
2018-07-30T01:45:15.426Z,25.60
2018-07-30T01:47:45.282Z,27.20
2018-07-30T01:50:15.113Z,25.67
2018-07-30T01:52:45.168Z,25.73
2018-07-30T01:55:14.956Z,25.93
2018-07-30T01:57:44.791Z,24.90
2018-07-30T02:00:14.560Z,25.17
2018-07-30T02:02:44.708Z,27.33
2018-07-30T02:05:14.497Z,25.90
2018-07-30T02:07:44.338Z,26.93
2018-07-30T02:10:14.175Z,25.80
2018-07-30T02:12:43.923Z,25.13
2018-07-30T02:15:16.763Z,25.53
2018-07-30T02:17:46.541Z,24.30
2018-07-30T02:20:16.399Z,25.13
2018-07-30T02:22:46.195Z,25.17
2018-07-30T02:25:16.199Z,23.83
2018-07-30T02:27:45.972Z,23.00
2018-07-30T02:30:16.138Z,24.00
2018-07-30T02:32:46.352Z,23.73
2018-07-30T02:35:16.160Z,24.87
2018-07-30T02:37:45.973Z,22.70
2018-07-30T02:40:15.776Z,37.47
2018-07-30T02:42:45.596Z,23.53
2018-07-30T02:45:15.316Z,24.57
2018-07-30T02:47:45.517Z,23.23
2018-07-30T02:50:15.312Z,23.47
2018-07-30T02:52:45.136Z,23.13
2018-07-30T02:55:14.875Z,23.53
2018-07-30T02:57:44.694Z,23.13
2018-07-30T03:00:14.512Z,23.80
2018-07-30T03:02:44.283Z,22.63
2018-07-30T03:05:14.117Z,24.20
2018-07-30T03:07:43.908Z,24.60
2018-07-30T03:10:13.727Z,23.67
2018-07-30T03:12:43.571Z,24.40
2018-07-30T03:15:13.532Z,22.70
2018-07-30T03:17:43.676Z,22.97
2018-07-30T03:20:13.472Z,23.00
2018-07-30T03:22:43.327Z,23.50
2018-07-30T03:25:13.015Z,23.60
2018-07-30T03:27:42.803Z,23.47
2018-07-30T03:30:12.632Z,24.47
2018-07-30T03:32:42.444Z,25.73
2018-07-30T03:35:12.264Z,24.10
2018-07-30T03:37:42.128Z,22.60
2018-07-30T03:40:11.993Z,19.70
2018-07-30T03:42:41.838Z,18.23
2018-07-30T03:45:12.063Z,17.27
2018-07-30T03:47:41.861Z,15.07
2018-07-30T03:50:14.807Z,16.07
2018-07-30T03:52:45.791Z,16.37
2018-07-30T03:55:15.829Z,14.93
2018-07-30T03:57:45.560Z,14.93
2018-07-30T04:00:15.725Z,14.60
2018-07-30T04:02:45.596Z,14.70
2018-07-30T04:05:15.734Z,13.97
2018-07-30T04:07:45.499Z,13.20
2018-07-30T04:10:15.205Z,14.20
2018-07-30T04:12:45.141Z,14.20
2018-07-30T04:15:14.949Z,13.87
2018-07-30T04:17:44.639Z,17.53
2018-07-30T04:20:14.424Z,18.33
2018-07-30T04:22:44.195Z,17.93
2018-07-30T04:25:13.881Z,19.03
2018-07-30T04:27:43.690Z,20.43
2018-07-30T04:30:13.528Z,20.80
2018-07-30T04:32:43.330Z,21.67
2018-07-30T04:35:13.254Z,20.40
2018-07-30T04:37:43.085Z,21.07
2018-07-30T04:40:12.800Z,19.73
2018-07-30T04:42:42.708Z,20.00
2018-07-30T04:45:12.544Z,20.57
2018-07-30T04:47:42.380Z,20.23
2018-07-30T04:50:12.331Z,18.97
2018-07-30T04:52:42.062Z,19.43
2018-07-30T04:55:11.780Z,19.30
2018-07-30T04:57:41.581Z,17.93
2018-07-30T05:00:11.351Z,17.23
2018-07-30T05:02:41.597Z,17.37
2018-07-30T05:05:11.940Z,18.33
2018-07-30T05:07:41.747Z,17.13
2018-07-30T05:10:11.440Z,16.90
2018-07-30T05:12:41.277Z,18.17
2018-07-30T05:15:11.034Z,16.60
2018-07-30T05:17:41.496Z,16.43
2018-07-30T05:20:11.212Z,16.53
2018-07-30T05:22:41.056Z,17.40
2018-07-30T05:25:10.927Z,16.73
2018-07-30T05:27:40.739Z,16.30
2018-07-30T05:30:10.607Z,16.70
2018-07-30T05:32:40.739Z,16.57
2018-07-30T05:35:10.492Z,16.73
2018-07-30T05:37:40.224Z,15.83
2018-07-30T05:40:10.212Z,17.07
2018-07-30T05:42:40.106Z,16.63
2018-07-30T05:45:09.924Z,19.97
2018-07-30T05:47:39.747Z,16.80
2018-07-30T05:50:09.524Z,15.70
2018-07-30T05:52:39.362Z,16.23
2018-07-30T05:55:09.039Z,16.60
2018-07-30T05:57:39.043Z,15.13
2018-07-30T06:00:08.812Z,16.63
2018-07-30T06:02:38.541Z,15.17
2018-07-30T06:05:09.144Z,15.50
2018-07-30T06:07:38.951Z,15.03
2018-07-30T06:10:14.194Z,15.03
2018-07-30T06:12:43.951Z,15.53
2018-07-30T06:15:13.940Z,16.17
2018-07-30T06:17:43.720Z,17.03
2018-07-30T06:20:13.560Z,15.73
2018-07-30T06:22:43.323Z,14.87
2018-07-30T06:25:13.164Z,14.17
2018-07-30T06:27:43.327Z,15.07
2018-07-30T06:30:13.554Z,15.30
2018-07-30T06:32:43.348Z,14.67
2018-07-30T06:35:13.056Z,14.97
2018-07-30T06:37:42.771Z,15.33
2018-07-30T06:40:12.631Z,16.43
2018-07-30T06:42:42.549Z,13.73
2018-07-30T06:45:12.395Z,13.70
2018-07-30T06:47:42.394Z,15.37
2018-07-30T06:50:12.431Z,15.80
2018-07-30T06:52:42.251Z,14.77
2018-07-30T06:55:12.247Z,16.87
2018-07-30T06:57:42.254Z,15.57
2018-07-30T07:00:12.047Z,14.60
2018-07-30T07:02:42.236Z,16.70
2018-07-30T07:05:12.464Z,15.13
2018-07-30T07:07:42.281Z,13.63
2018-07-30T07:10:12.836Z,14.47
2018-07-30T07:12:42.581Z,14.83
2018-07-30T07:15:14.140Z,13.50
2018-07-30T07:17:44.850Z,14.40
2018-07-30T07:20:14.631Z,12.53
2018-07-30T07:22:44.372Z,12.80
2018-07-30T07:25:14.172Z,11.77
2018-07-30T07:27:43.969Z,12.50
2018-07-30T07:30:13.688Z,11.40
2018-07-30T07:32:43.656Z,12.67
2018-07-30T07:35:13.610Z,11.53
2018-07-30T07:37:43.459Z,10.60
2018-07-30T07:40:13.232Z,11.57
2018-07-30T07:42:43.065Z,11.27
2018-07-30T07:45:13.044Z,9.43
2018-07-30T07:47:42.949Z,9.40
2018-07-30T07:50:12.788Z,9.50
2018-07-30T07:52:42.464Z,10.30
2018-07-30T07:55:12.766Z,10.50
2018-07-30T07:57:42.819Z,10.37
2018-07-30T08:00:12.711Z,10.17
2018-07-30T08:02:42.477Z,9.97
2018-07-30T08:05:12.432Z,9.50
2018-07-30T08:07:42.163Z,9.97
2018-07-30T08:10:12.189Z,11.40
2018-07-30T08:12:41.967Z,12.50
2018-07-30T08:15:11.839Z,12.57
2018-07-30T08:17:41.760Z,12.10
2018-07-30T08:20:11.617Z,12.03
2018-07-30T08:22:41.568Z,12.40
2018-07-30T08:25:13.262Z,11.77
2018-07-30T08:27:43.659Z,12.47
2018-07-30T08:30:13.469Z,12.43
2018-07-30T08:32:43.576Z,12.30
2018-07-30T08:35:13.504Z,13.17
2018-07-30T08:37:43.294Z,11.07
2018-07-30T08:40:13.172Z,15.00
2018-07-30T08:42:43.336Z,10.87
2018-07-30T08:45:13.203Z,11.70
2018-07-30T08:47:42.972Z,11.53
2018-07-30T08:50:12.786Z,10.80
2018-07-30T08:52:42.497Z,11.10
2018-07-30T08:55:12.172Z,10.60
2018-07-30T08:57:42.094Z,10.97
2018-07-30T09:00:11.985Z,10.77
2018-07-30T09:02:41.722Z,10.83
2018-07-30T09:05:12.435Z,11.90
2018-07-30T09:07:42.236Z,9.97
2018-07-30T09:10:12.004Z,11.10
2018-07-30T09:12:43.154Z,10.17
2018-07-30T09:15:13.235Z,11.20
2018-07-30T09:17:43.129Z,10.53
2018-07-30T09:20:12.793Z,9.90
2018-07-30T09:22:42.576Z,9.57
2018-07-30T09:25:12.356Z,7.27
2018-07-30T09:27:42.192Z,6.70
2018-07-30T09:30:11.992Z,7.10
2018-07-30T09:32:41.814Z,7.90
2018-07-30T09:35:11.686Z,8.87
2018-07-30T09:37:41.805Z,7.73
2018-07-30T09:40:12.368Z,7.60
2018-07-30T09:42:42.278Z,9.00
2018-07-30T09:45:12.110Z,9.70
2018-07-30T09:47:41.907Z,8.73
2018-07-30T09:50:11.589Z,10.27
2018-07-30T09:52:41.496Z,8.63
2018-07-30T09:55:11.392Z,8.70
2018-07-30T09:57:41.187Z,7.93
2018-07-30T10:00:11.329Z,8.93
2018-07-30T10:02:41.121Z,9.37
2018-07-30T10:05:10.901Z,9.80
2018-07-30T10:07:40.700Z,9.40
2018-07-30T10:10:10.428Z,10.20
2018-07-30T10:12:40.211Z,10.00
2018-07-30T10:15:10.055Z,10.57
2018-07-30T10:17:39.880Z,10.67
2018-07-30T10:20:10.329Z,10.60
2018-07-30T10:22:40.024Z,10.70
2018-07-30T10:25:10.645Z,10.73
2018-07-30T10:27:40.776Z,10.37
2018-07-30T10:30:10.456Z,10.70
2018-07-30T10:32:40.257Z,10.40
2018-07-30T10:35:09.948Z,9.67
2018-07-30T10:37:39.994Z,10.10
2018-07-30T10:40:10.106Z,9.77
2018-07-30T10:42:39.995Z,12.37
2018-07-30T10:45:10.113Z,10.30
2018-07-30T10:47:40.215Z,9.93
2018-07-30T10:50:10.183Z,10.30
2018-07-30T10:52:40.188Z,10.03
2018-07-30T10:55:09.976Z,9.90
2018-07-30T10:57:39.771Z,8.67
2018-07-30T11:00:09.889Z,9.40
2018-07-30T11:02:39.958Z,9.80
2018-07-30T11:05:09.707Z,9.37
2018-07-30T11:07:39.501Z,8.43
2018-07-30T11:10:09.308Z,9.27
2018-07-30T11:12:39.091Z,8.27
2018-07-30T11:15:08.756Z,9.20
2018-07-30T11:17:38.964Z,9.13
2018-07-30T11:20:08.825Z,9.23
2018-07-30T11:22:38.618Z,8.23
2018-07-30T11:25:08.904Z,9.43
2018-07-30T11:27:38.979Z,9.20
2018-07-30T11:30:08.835Z,8.77
2018-07-30T11:32:38.867Z,9.00
2018-07-30T11:35:08.797Z,8.70
2018-07-30T11:37:38.508Z,8.70
2018-07-30T11:40:08.272Z,8.27
2018-07-30T11:42:37.988Z,8.70
2018-07-30T11:45:07.834Z,9.07
2018-07-30T11:47:37.525Z,9.10
2018-07-30T11:50:07.336Z,9.93
2018-07-30T11:52:37.183Z,10.37
2018-07-30T11:55:07.065Z,10.20
2018-07-30T11:57:36.789Z,11.20
2018-07-30T12:00:07.304Z,12.23
2018-07-30T12:02:37.425Z,11.20
2018-07-30T12:05:07.505Z,12.03
2018-07-30T12:07:37.314Z,13.73
2018-07-30T12:10:07.519Z,12.23
2018-07-30T12:12:37.239Z,11.47
2018-07-30T12:15:07.221Z,12.17
2018-07-30T12:17:37.496Z,10.20
2018-07-30T12:20:07.747Z,12.13
2018-07-30T12:22:37.534Z,11.00
2018-07-30T12:25:07.365Z,12.07
2018-07-30T12:27:37.356Z,11.33
2018-07-30T12:30:08.006Z,12.53
2018-07-30T12:32:38.037Z,12.53
2018-07-30T12:35:07.792Z,13.13
2018-07-30T12:37:37.459Z,12.07
2018-07-30T12:40:07.214Z,13.03
2018-07-30T12:42:37.386Z,13.47
2018-07-30T12:45:07.266Z,14.03
2018-07-30T12:47:37.434Z,12.90
2018-07-30T12:50:07.322Z,13.13
2018-07-30T12:52:37.421Z,12.20
2018-07-30T12:55:07.503Z,13.10
2018-07-30T12:57:37.274Z,13.33
2018-07-30T13:00:07.316Z,13.67
2018-07-30T13:02:37.129Z,14.50
2018-07-30T13:05:07.120Z,14.50
2018-07-30T13:07:37.284Z,14.57
2018-07-30T13:10:07.086Z,13.93
2018-07-30T13:12:37.204Z,14.73
2018-07-30T13:15:07.356Z,15.17
2018-07-30T13:17:37.212Z,13.97
2018-07-30T13:20:06.995Z,14.50
2018-07-30T13:22:37.229Z,14.37
2018-07-30T13:25:07.332Z,13.47
2018-07-30T13:27:37.763Z,14.50
2018-07-30T13:30:08.579Z,14.33
2018-07-30T13:32:38.836Z,14.67
2018-07-30T13:35:08.968Z,14.47
2018-07-30T13:37:38.727Z,13.87
2018-07-30T13:40:08.557Z,14.70
2018-07-30T13:42:38.492Z,14.40
2018-07-30T13:45:08.277Z,15.60
2018-07-30T13:47:38.333Z,14.90
2018-07-30T13:50:10.206Z,14.70
2018-07-30T13:52:40.095Z,14.23
2018-07-30T13:55:10.372Z,14.13
2018-07-30T13:57:40.132Z,14.67
2018-07-30T14:00:11.252Z,14.23
2018-07-30T14:02:41.252Z,15.60
2018-07-30T14:05:11.696Z,14.13
2018-07-30T14:07:41.614Z,14.90
2018-07-30T14:10:11.667Z,15.33
2018-07-30T14:12:41.876Z,15.37
2018-07-30T14:15:11.751Z,15.70
2018-07-30T14:17:41.443Z,15.47
2018-07-30T14:20:11.279Z,14.90
2018-07-30T14:22:41.402Z,14.50
2018-07-30T14:25:11.183Z,21.10
2018-07-30T14:27:40.981Z,13.53
2018-07-30T14:30:11.233Z,15.37
2018-07-30T14:32:41.032Z,15.03
2018-07-30T14:35:10.708Z,14.90
2018-07-30T14:37:40.569Z,15.03
2018-07-30T14:40:12.535Z,15.20
2018-07-30T14:42:42.749Z,15.30
2018-07-30T14:45:12.637Z,15.17
2018-07-30T14:47:42.636Z,14.73
2018-07-30T14:50:12.964Z,15.60
2018-07-30T14:52:43.052Z,15.30
2018-07-30T14:55:12.892Z,14.20
2018-07-30T14:57:43.171Z,14.80
2018-07-30T15:00:13.024Z,14.00
2018-07-30T15:02:43.596Z,14.77
2018-07-30T15:05:18.234Z,14.17
2018-07-30T15:07:48.693Z,12.83
2018-07-30T15:10:18.589Z,12.63
2018-07-30T15:12:48.641Z,13.00
2018-07-30T15:15:18.847Z,12.60
2018-07-30T15:17:48.887Z,13.03
2018-07-30T15:20:19.188Z,12.30
2018-07-30T15:22:49.354Z,12.83
2018-07-30T15:25:19.328Z,12.97
2018-07-30T15:27:49.333Z,13.47
2018-07-30T15:30:19.532Z,13.53
2018-07-30T15:32:49.543Z,13.53
2018-07-30T15:35:19.969Z,13.80
2018-07-30T15:37:50.432Z,13.17
2018-07-30T15:40:20.452Z,14.40
2018-07-30T15:42:50.476Z,14.63
2018-07-30T15:45:20.483Z,14.83
2018-07-30T15:47:50.518Z,13.73
2018-07-30T15:50:20.538Z,12.70
2018-07-30T15:52:50.824Z,13.67
2018-07-30T15:55:21.016Z,13.23
2018-07-30T15:57:51.017Z,13.10
2018-07-30T16:00:21.034Z,13.00
2018-07-30T16:02:51.550Z,12.63
2018-07-30T16:05:22.063Z,12.83
2018-07-30T16:07:52.660Z,12.57
2018-07-30T16:10:22.758Z,12.30
2018-07-30T16:12:52.824Z,11.37
2018-07-30T16:15:23.816Z,11.53
2018-07-30T16:17:53.873Z,12.73
2018-07-30T16:20:23.882Z,11.50
2018-07-30T16:22:53.823Z,10.93
2018-07-30T16:25:23.771Z,12.00
2018-07-30T16:27:53.716Z,11.03
2018-07-30T16:30:23.636Z,12.03
2018-07-30T16:32:53.911Z,12.00
2018-07-30T16:35:23.811Z,11.00
2018-07-30T16:37:54.051Z,11.17
2018-07-30T16:40:24.238Z,10.47
2018-07-30T16:42:54.537Z,10.47
2018-07-30T16:45:25.737Z,9.90
2018-07-30T16:47:56.699Z,11.40
2018-07-30T16:50:27.112Z,10.90
2018-07-30T16:52:57.027Z,11.13
2018-07-30T16:55:26.735Z,11.63
2018-07-30T16:57:56.909Z,11.70
2018-07-30T17:00:26.865Z,10.67
2018-07-30T17:02:57.512Z,11.90
2018-07-30T17:05:27.857Z,12.17
2018-07-30T17:07:58.170Z,12.00
2018-07-30T17:10:28.237Z,11.90
2018-07-30T17:12:58.532Z,11.90
2018-07-30T17:15:28.699Z,11.80
2018-07-30T17:17:58.796Z,12.03
2018-07-30T17:20:28.968Z,11.80
2018-07-30T17:22:59.068Z,12.47
2018-07-30T17:25:29.140Z,12.27
2018-07-30T17:28:00.207Z,11.77
2018-07-30T17:30:30.129Z,12.27
2018-07-30T17:33:00.236Z,13.40
2018-07-30T17:35:30.268Z,13.83
2018-07-30T17:38:00.217Z,13.00
2018-07-30T17:40:30.165Z,13.50
2018-07-30T17:43:00.183Z,13.10
2018-07-30T17:45:30.737Z,13.10
2018-07-30T17:48:01.112Z,12.30
2018-07-30T17:50:31.164Z,14.20
2018-07-30T17:53:01.108Z,13.43
2018-07-30T17:55:31.088Z,12.97
2018-07-30T17:58:01.120Z,14.20
2018-07-30T18:00:31.508Z,13.67
2018-07-30T18:03:03.184Z,13.60
2018-07-30T18:05:34.157Z,12.77
2018-07-30T18:08:04.137Z,15.13
2018-07-30T18:10:34.517Z,14.40
2018-07-30T18:13:05.529Z,14.20
2018-07-30T18:15:35.760Z,14.07
2018-07-30T18:18:05.663Z,13.77
2018-07-30T18:20:36.708Z,13.57
2018-07-30T18:23:06.621Z,14.27
2018-07-30T18:25:36.767Z,14.93
2018-07-30T18:28:06.917Z,14.07
2018-07-30T18:30:37.248Z,13.60
2018-07-30T18:33:07.633Z,13.87
2018-07-30T18:35:37.872Z,13.20
2018-07-30T18:38:08.149Z,13.23
2018-07-30T18:40:38.566Z,12.03
2018-07-30T18:43:08.845Z,13.07
2018-07-30T18:45:39.042Z,12.67
2018-07-30T18:48:09.141Z,12.40
2018-07-30T18:50:39.309Z,12.97
2018-07-30T18:53:09.400Z,12.10
2018-07-30T18:55:39.247Z,11.83
2018-07-30T18:58:09.637Z,12.10
2018-07-30T19:00:39.850Z,11.77
2018-07-30T19:03:10.004Z,12.03
2018-07-30T19:05:40.183Z,12.73
2018-07-30T19:08:11.391Z,12.07
2018-07-30T19:10:42.701Z,12.40
2018-07-30T19:13:12.739Z,13.83
2018-07-30T19:15:42.867Z,13.43
2018-07-30T19:18:13.121Z,12.57
2018-07-30T19:20:43.268Z,13.30
2018-07-30T19:23:13.653Z,13.30
2018-07-30T19:25:43.771Z,13.30
2018-07-30T19:28:14.177Z,12.63
2018-07-30T19:30:44.305Z,13.47
2018-07-30T19:33:14.569Z,13.23
2018-07-30T19:35:45.024Z,17.00
2018-07-30T19:38:15.565Z,13.30
2018-07-30T19:40:45.676Z,13.20
2018-07-30T19:43:15.641Z,13.63
2018-07-30T19:45:45.820Z,12.60
2018-07-30T19:48:15.872Z,12.83
2018-07-30T19:50:45.804Z,14.30
2018-07-30T19:53:15.667Z,14.27
2018-07-30T19:55:45.432Z,14.07
2018-07-30T19:58:15.620Z,14.13
2018-07-30T20:00:45.391Z,15.27
2018-07-30T20:03:15.423Z,16.37
2018-07-30T20:05:45.458Z,16.13
2018-07-30T20:08:15.628Z,15.40
2018-07-30T20:10:45.637Z,15.60
2018-07-30T20:13:15.567Z,17.20
2018-07-30T20:15:45.818Z,16.27
2018-07-30T20:18:15.730Z,16.40
2018-07-30T20:20:45.700Z,16.23
2018-07-30T20:23:15.750Z,14.83
2018-07-30T20:25:45.928Z,16.73
2018-07-30T20:28:16.029Z,16.00
2018-07-30T20:30:46.060Z,15.80
2018-07-30T20:33:16.029Z,16.03
2018-07-30T20:35:45.926Z,15.00
2018-07-30T20:38:15.869Z,14.87
2018-07-30T20:40:45.743Z,15.83
2018-07-30T20:43:15.699Z,17.10
2018-07-30T20:45:45.602Z,15.63
2018-07-30T20:48:15.868Z,14.83
2018-07-30T20:50:46.164Z,14.13
2018-07-30T20:53:16.075Z,13.43
2018-07-30T20:55:46.236Z,12.77
2018-07-30T20:58:16.544Z,12.40
2018-07-30T21:00:46.524Z,12.53
2018-07-30T21:03:16.545Z,11.83
2018-07-30T21:05:47.469Z,13.23
2018-07-30T21:08:17.685Z,13.07
2018-07-30T21:10:47.592Z,12.73
2018-07-30T21:13:17.834Z,12.87
2018-07-30T21:15:47.816Z,13.63
2018-07-30T21:18:17.740Z,12.87
2018-07-30T21:20:47.892Z,15.00
2018-07-30T21:23:18.174Z,13.83
2018-07-30T21:25:48.490Z,15.00
2018-07-30T21:28:18.994Z,14.53
2018-07-30T21:30:48.914Z,15.33
2018-07-30T21:33:19.112Z,14.33
2018-07-30T21:35:49.324Z,13.10
2018-07-30T21:38:19.235Z,13.37
2018-07-30T21:40:49.236Z,12.80
2018-07-30T21:43:19.072Z,13.77
2018-07-30T21:45:49.152Z,13.73
2018-07-30T21:48:19.213Z,13.37
2018-07-30T21:50:49.253Z,13.83
2018-07-30T21:53:19.139Z,13.13
2018-07-30T21:55:48.985Z,13.73
2018-07-30T21:58:19.057Z,13.80
2018-07-30T22:00:54.076Z,12.77
2018-07-30T22:03:24.257Z,13.73
2018-07-30T22:05:56.235Z,12.47
2018-07-30T22:08:26.533Z,12.83
2018-07-30T22:10:56.448Z,12.50
2018-07-30T22:13:26.432Z,12.97
2018-07-30T22:15:56.588Z,13.60
2018-07-30T22:18:26.728Z,12.70
2018-07-30T22:20:56.726Z,12.93
2018-07-30T22:23:26.676Z,13.50
2018-07-30T22:25:56.495Z,13.53
2018-07-30T22:28:26.482Z,13.60
2018-07-30T22:30:56.359Z,14.57
2018-07-30T22:33:26.575Z,13.50
2018-07-30T22:35:56.592Z,13.63
2018-07-30T22:38:26.556Z,13.13
2018-07-30T22:40:56.490Z,13.47
2018-07-30T22:43:26.478Z,13.50
2018-07-30T22:45:56.396Z,13.67
2018-07-30T22:48:26.563Z,13.97
2018-07-30T22:50:56.453Z,13.23
2018-07-30T22:53:26.460Z,13.00
2018-07-30T22:55:56.186Z,12.70
2018-07-30T22:58:26.240Z,12.70
2018-07-30T23:00:56.172Z,13.93
2018-07-30T23:03:26.141Z,12.83
2018-07-30T23:05:56.654Z,13.20
2018-07-30T23:08:26.951Z,13.23
2018-07-30T23:10:57.121Z,13.83
2018-07-30T23:13:27.233Z,13.73
2018-07-30T23:15:57.091Z,12.87
2018-07-30T23:18:27.136Z,13.33
2018-07-30T23:20:57.078Z,13.10
2018-07-30T23:23:27.152Z,12.97
2018-07-30T23:25:58.126Z,14.37
2018-07-30T23:28:28.020Z,13.80
2018-07-30T23:30:58.025Z,13.90
2018-07-30T23:33:28.299Z,14.87
2018-07-30T23:35:58.308Z,13.67
2018-07-30T23:38:28.472Z,13.93
2018-07-30T23:40:58.663Z,14.13
2018-07-30T23:43:28.619Z,14.90
2018-07-30T23:45:58.471Z,15.20
2018-07-30T23:48:28.556Z,14.47
2018-07-30T23:50:58.388Z,15.43
2018-07-30T23:53:28.495Z,17.60
2018-07-30T23:55:58.665Z,16.97
2018-07-30T23:58:28.766Z,17.13
